Terminal Aerodrome Forecast
Issued by NWS Sioux Falls, SD

Home | Current Version | Previous Version | Graphics & Text | Print | Product List | Glossary Off
Versions: 1 2 3 4 5 6 7 8 9 10 11 12 13 14 15 16 17 18 19 20 21 22 23 24 25 26 27 28 29 30 31 32 33 34 35 36 37 38 39

000
FTUS43 KFSD 131729
TAFSUX
TAF
KSUX 131729Z 1318/1418 15010KT P6SM OVC050
     FM132100 15016G24KT P6SM OVC040
      TEMPO 1400/1403 6SM -SN OVC025
     FM140800 15017G25KT 2SM -SN BLSN OVC020
     FM141200 15015G24KT 4SM -SN OVC025
     FM141400 22006KT P6SM OVC025=

USA.gov is the U.S. government's official web portal to all federal, state and local government web resources and services.